sensor_id;sensor_type;location;lat;lon;timestamp;temperature;humidity
23744;DHT22;12052;53.478;10.182;2023-08-20T00:00:14;18.90;99.90
23744;DHT22;12052;53.478;10.182;2023-08-20T00:02:43;18.90;99.90
23744;DHT22;12052;53.478;10.182;2023-08-20T00:05:11;18.80;99.90
23744;DHT22;12052;53.478;10.182;2023-08-20T00:07:37;18.80;99.90
23744;DHT22;12052;53.478;10.182;2023-08-20T00:10:03;18.80;99.90
23744;DHT22;12052;53.478;10.182;2023-08-20T00:12:30;18.70;99.90
23744;DHT22;12052;53.478;10.182;2023-08-20T00:15:01;18.70;99.90
23744;DHT22;12052;53.478;10.182;2023-08-20T00:17:31;18.70;99.90
23744;DHT22;12052;53.478;10.182;2023-08-20T00:19:57;18.70;99.90
23744;DHT22;12052;53.478;10.182;2023-08-20T00:22:24;18.60;99.90
23744;DHT22;12052;53.478;10.182;2023-08-20T00:24:51;18.60;99.90
23744;DHT22;12052;53.478;10.182;2023-08-20T00:27:17;18.60;99.90
23744;DHT22;12052;53.478;10.182;2023-08-20T00:29:43;18.50;99.90
23744;DHT22;12052;53.478;10.182;2023-08-20T00:32:09;18.50;99.90
23744;DHT22;12052;53.478;10.182;2023-08-20T00:34:34;18.50;99.90
23744;DHT22;12052;53.478;10.182;2023-08-20T00:37:01;18.50;99.90
23744;DHT22;12052;53.478;10.182;2023-08-20T00:39:28;18.40;99.90
23744;DHT22;12052;53.478;10.182;2023-08-20T00:41:53;18.40;99.90
23744;DHT22;12052;53.478;10.182;2023-08-20T00:44:19;18.30;99.90
23744;DHT22;12052;53.478;10.182;2023-08-20T00:46:45;18.30;99.90
23744;DHT22;12052;53.478;10.182;2023-08-20T00:49:11;18.30;99.90
23744;DHT22;12052;53.478;10.182;2023-08-20T00:51:37;18.30;99.90
23744;DHT22;12052;53.478;10.182;2023-08-20T00:54:03;18.30;99.90
23744;DHT22;12052;53.478;10.182;2023-08-20T00:56:29;18.30;99.90
23744;DHT22;12052;53.478;10.182;2023-08-20T00:58:55;18.20;99.90
23744;DHT22;12052;53.478;10.182;2023-08-20T01:01:24;18.20;99.90
23744;DHT22;12052;53.478;10.182;2023-08-20T01:03:49;18.20;99.90
23744;DHT22;12052;53.478;10.182;2023-08-20T01:09:14;18.20;99.90
23744;DHT22;12052;53.478;10.182;2023-08-20T01:11:52;18.10;99.90
23744;DHT22;12052;53.478;10.182;2023-08-20T01:14:20;18.10;99.90
23744;DHT22;12052;53.478;10.182;2023-08-20T01:16:46;18.00;99.90
23744;DHT22;12052;53.478;10.182;2023-08-20T01:19:18;18.00;99.90
23744;DHT22;12052;53.478;10.182;2023-08-20T01:27:08;17.90;99.90
23744;DHT22;12052;53.478;10.182;2023-08-20T01:29:36;17.80;99.90
23744;DHT22;12052;53.478;10.182;2023-08-20T01:32:03;17.80;99.90
23744;DHT22;12052;53.478;10.182;2023-08-20T01:34:29;17.70;99.90
23744;DHT22;12052;53.478;10.182;2023-08-20T01:36:55;17.70;99.90
23744;DHT22;12052;53.478;10.182;2023-08-20T01:39:21;17.70;99.90
23744;DHT22;12052;53.478;10.182;2023-08-20T01:41:46;17.70;99.90
23744;DHT22;12052;53.478;10.182;2023-08-20T01:44:12;17.60;99.90
23744;DHT22;12052;53.478;10.182;2023-08-20T01:46:38;17.60;99.90
23744;DHT22;12052;53.478;10.182;2023-08-20T01:49:03;17.50;99.90
23744;DHT22;12052;53.478;10.182;2023-08-20T01:51:29;17.50;99.90
23744;DHT22;12052;53.478;10.182;2023-08-20T01:53:55;17.50;99.90
23744;DHT22;12052;53.478;10.182;2023-08-20T01:56:20;17.40;99.90
23744;DHT22;12052;53.478;10.182;2023-08-20T01:58:46;17.40;99.90
23744;DHT22;12052;53.478;10.182;2023-08-20T02:01:11;17.30;99.90
23744;DHT22;12052;53.478;10.182;2023-08-20T02:03:37;17.30;99.90
23744;DHT22;12052;53.478;10.182;2023-08-20T02:06:03;17.30;99.90
23744;DHT22;12052;53.478;10.182;2023-08-20T02:08:29;17.20;99.90
23744;DHT22;12052;53.478;10.182;2023-08-20T02:11:04;17.20;99.90
23744;DHT22;12052;53.478;10.182;2023-08-20T02:13:33;17.20;99.90
23744;DHT22;12052;53.478;10.182;2023-08-20T02:16:00;17.20;99.90
23744;DHT22;12052;53.478;10.182;2023-08-20T02:18:25;17.10;99.90
23744;DHT22;12052;53.478;10.182;2023-08-20T02:20:51;17.10;99.90
23744;DHT22;12052;53.478;10.182;2023-08-20T02:23:16;17.10;99.90
23744;DHT22;12052;53.478;10.182;2023-08-20T02:25:44;17.10;99.90
23744;DHT22;12052;53.478;10.182;2023-08-20T02:28:09;17.10;99.90
23744;DHT22;12052;53.478;10.182;2023-08-20T02:30:45;17.00;99.90
23744;DHT22;12052;53.478;10.182;2023-08-20T02:33:11;17.00;99.90
23744;DHT22;12052;53.478;10.182;2023-08-20T02:35:37;17.00;99.90
23744;DHT22;12052;53.478;10.182;2023-08-20T02:38:03;16.90;99.90
23744;DHT22;12052;53.478;10.182;2023-08-20T02:40:28;16.90;99.90
23744;DHT22;12052;53.478;10.182;2023-08-20T02:42:54;16.90;99.90
23744;DHT22;12052;53.478;10.182;2023-08-20T02:45:20;16.90;99.90
23744;DHT22;12052;53.478;10.182;2023-08-20T02:47:45;16.90;99.90
23744;DHT22;12052;53.478;10.182;2023-08-20T02:50:11;16.80;99.90
23744;DHT22;12052;53.478;10.182;2023-08-20T02:52:37;16.80;99.90
23744;DHT22;12052;53.478;10.182;2023-08-20T02:55:03;16.80;99.90
23744;DHT22;12052;53.478;10.182;2023-08-20T02:57:30;16.80;99.90
23744;DHT22;12052;53.478;10.182;2023-08-20T02:59:56;16.80;99.90
23744;DHT22;12052;53.478;10.182;2023-08-20T03:02:22;16.80;99.90
23744;DHT22;12052;53.478;10.182;2023-08-20T03:04:47;16.80;99.90
23744;DHT22;12052;53.478;10.182;2023-08-20T03:07:13;16.70;99.90
23744;DHT22;12052;53.478;10.182;2023-08-20T03:09:39;16.70;99.90
23744;DHT22;12052;53.478;10.182;2023-08-20T03:12:04;16.70;99.90
23744;DHT22;12052;53.478;10.182;2023-08-20T03:14:30;16.70;99.90
23744;DHT22;12052;53.478;10.182;2023-08-20T03:16:56;16.70;99.90
23744;DHT22;12052;53.478;10.182;2023-08-20T03:19:22;16.60;99.90
23744;DHT22;12052;53.478;10.182;2023-08-20T03:21:47;16.60;99.90
23744;DHT22;12052;53.478;10.182;2023-08-20T03:24:13;16.50;99.90
23744;DHT22;12052;53.478;10.182;2023-08-20T03:26:38;16.40;99.90
23744;DHT22;12052;53.478;10.182;2023-08-20T03:29:04;16.40;99.90
23744;DHT22;12052;53.478;10.182;2023-08-20T03:31:30;16.40;99.90
23744;DHT22;12052;53.478;10.182;2023-08-20T03:33:55;16.40;99.90
23744;DHT22;12052;53.478;10.182;2023-08-20T03:36:21;16.30;99.90
23744;DHT22;12052;53.478;10.182;2023-08-20T03:38:46;16.40;99.90
23744;DHT22;12052;53.478;10.182;2023-08-20T03:41:12;16.40;99.90
23744;DHT22;12052;53.478;10.182;2023-08-20T03:43:37;16.40;99.90
23744;DHT22;12052;53.478;10.182;2023-08-20T03:46:03;16.40;99.90
23744;DHT22;12052;53.478;10.182;2023-08-20T03:48:29;16.40;99.90
23744;DHT22;12052;53.478;10.182;2023-08-20T03:50:54;16.30;99.90
23744;DHT22;12052;53.478;10.182;2023-08-20T03:53:21;16.30;99.90
23744;DHT22;12052;53.478;10.182;2023-08-20T03:55:49;16.30;99.90
23744;DHT22;12052;53.478;10.182;2023-08-20T03:58:15;16.20;99.90
23744;DHT22;12052;53.478;10.182;2023-08-20T04:00:41;16.30;99.90
23744;DHT22;12052;53.478;10.182;2023-08-20T04:03:07;16.30;99.90
23744;DHT22;12052;53.478;10.182;2023-08-20T04:05:39;16.30;99.90
23744;DHT22;12052;53.478;10.182;2023-08-20T04:08:05;16.30;99.90
23744;DHT22;12052;53.478;10.182;2023-08-20T04:10:31;16.40;99.90
23744;DHT22;12052;53.478;10.182;2023-08-20T04:12:58;16.40;99.90
23744;DHT22;12052;53.478;10.182;2023-08-20T04:15:23;16.30;99.90
23744;DHT22;12052;53.478;10.182;2023-08-20T04:17:49;16.30;99.90
23744;DHT22;12052;53.478;10.182;2023-08-20T04:20:15;16.30;99.90
23744;DHT22;12052;53.478;10.182;2023-08-20T04:22:41;16.30;99.90
23744;DHT22;12052;53.478;10.182;2023-08-20T04:25:07;16.30;99.90
23744;DHT22;12052;53.478;10.182;2023-08-20T04:27:33;16.30;99.90
23744;DHT22;12052;53.478;10.182;2023-08-20T04:29:58;16.30;99.90
23744;DHT22;12052;53.478;10.182;2023-08-20T04:32:24;16.30;99.90
23744;DHT22;12052;53.478;10.182;2023-08-20T04:34:50;16.30;99.90
23744;DHT22;12052;53.478;10.182;2023-08-20T04:37:20;16.30;99.90
23744;DHT22;12052;53.478;10.182;2023-08-20T04:39:45;16.40;99.90
23744;DHT22;12052;53.478;10.182;2023-08-20T04:42:11;16.40;99.90
23744;DHT22;12052;53.478;10.182;2023-08-20T04:44:37;16.40;99.90
23744;DHT22;12052;53.478;10.182;2023-08-20T04:47:02;16.30;99.90
23744;DHT22;12052;53.478;10.182;2023-08-20T04:49:28;16.20;99.90
23744;DHT22;12052;53.478;10.182;2023-08-20T04:51:55;16.30;99.90
23744;DHT22;12052;53.478;10.182;2023-08-20T04:54:21;16.30;99.90
23744;DHT22;12052;53.478;10.182;2023-08-20T04:56:46;16.30;99.90
23744;DHT22;12052;53.478;10.182;2023-08-20T04:59:12;16.30;99.90
23744;DHT22;12052;53.478;10.182;2023-08-20T05:01:38;16.20;99.90
23744;DHT22;12052;53.478;10.182;2023-08-20T05:04:04;16.10;99.90
23744;DHT22;12052;53.478;10.182;2023-08-20T05:06:31;16.10;99.90
23744;DHT22;12052;53.478;10.182;2023-08-20T05:08:56;16.00;99.90
23744;DHT22;12052;53.478;10.182;2023-08-20T05:11:22;16.10;99.90
23744;DHT22;12052;53.478;10.182;2023-08-20T05:13:49;16.00;99.90
23744;DHT22;12052;53.478;10.182;2023-08-20T05:16:15;16.00;99.90
23744;DHT22;12052;53.478;10.182;2023-08-20T05:18:41;16.10;99.90
23744;DHT22;12052;53.478;10.182;2023-08-20T05:21:07;16.10;99.90
23744;DHT22;12052;53.478;10.182;2023-08-20T05:23:33;16.00;99.90
23744;DHT22;12052;53.478;10.182;2023-08-20T05:25:58;16.10;99.90
23744;DHT22;12052;53.478;10.182;2023-08-20T05:28:24;16.10;99.90
23744;DHT22;12052;53.478;10.182;2023-08-20T05:30:56;16.10;99.90
23744;DHT22;12052;53.478;10.182;2023-08-20T05:33:23;16.10;99.90
23744;DHT22;12052;53.478;10.182;2023-08-20T05:35:49;16.10;99.90
23744;DHT22;12052;53.478;10.182;2023-08-20T05:38:14;16.20;99.90
23744;DHT22;12052;53.478;10.182;2023-08-20T05:40:40;16.20;99.90
23744;DHT22;12052;53.478;10.182;2023-08-20T05:43:06;16.30;99.90
23744;DHT22;12052;53.478;10.182;2023-08-20T05:45:32;16.40;99.90
23744;DHT22;12052;53.478;10.182;2023-08-20T05:47:57;16.50;99.90
23744;DHT22;12052;53.478;10.182;2023-08-20T05:50:23;16.50;99.90
23744;DHT22;12052;53.478;10.182;2023-08-20T05:52:48;16.50;99.90
23744;DHT22;12052;53.478;10.182;2023-08-20T05:55:14;16.50;99.90
23744;DHT22;12052;53.478;10.182;2023-08-20T05:57:41;16.60;99.90
23744;DHT22;12052;53.478;10.182;2023-08-20T06:00:08;16.70;99.90
23744;DHT22;12052;53.478;10.182;2023-08-20T06:02:34;16.70;99.90
23744;DHT22;12052;53.478;10.182;2023-08-20T06:05:00;16.80;99.90
23744;DHT22;12052;53.478;10.182;2023-08-20T06:07:26;16.80;99.90
23744;DHT22;12052;53.478;10.182;2023-08-20T06:09:52;16.70;99.90
23744;DHT22;12052;53.478;10.182;2023-08-20T06:12:18;16.80;99.90
23744;DHT22;12052;53.478;10.182;2023-08-20T06:14:44;16.90;99.90
23744;DHT22;12052;53.478;10.182;2023-08-20T06:17:09;17.00;99.90
23744;DHT22;12052;53.478;10.182;2023-08-20T06:19:35;17.10;99.90
23744;DHT22;12052;53.478;10.182;2023-08-20T06:22:00;17.20;99.90
23744;DHT22;12052;53.478;10.182;2023-08-20T06:24:26;17.20;99.90
23744;DHT22;12052;53.478;10.182;2023-08-20T06:26:52;17.20;99.90
23744;DHT22;12052;53.478;10.182;2023-08-20T06:29:18;17.40;99.90
23744;DHT22;12052;53.478;10.182;2023-08-20T06:31:43;17.30;99.90
23744;DHT22;12052;53.478;10.182;2023-08-20T06:34:09;17.30;99.90
23744;DHT22;12052;53.478;10.182;2023-08-20T06:36:35;17.40;99.90
23744;DHT22;12052;53.478;10.182;2023-08-20T06:39:01;17.40;99.90
23744;DHT22;12052;53.478;10.182;2023-08-20T06:41:27;17.50;99.90
23744;DHT22;12052;53.478;10.182;2023-08-20T06:43:52;17.50;99.90
23744;DHT22;12052;53.478;10.182;2023-08-20T06:46:18;17.60;99.90
23744;DHT22;12052;53.478;10.182;2023-08-20T06:48:43;17.70;99.90
23744;DHT22;12052;53.478;10.182;2023-08-20T06:51:19;17.80;99.90
23744;DHT22;12052;53.478;10.182;2023-08-20T06:53:45;17.90;99.90
23744;DHT22;12052;53.478;10.182;2023-08-20T06:56:10;17.90;99.90
23744;DHT22;12052;53.478;10.182;2023-08-20T06:58:40;18.00;99.90
23744;DHT22;12052;53.478;10.182;2023-08-20T07:01:06;18.10;99.90
23744;DHT22;12052;53.478;10.182;2023-08-20T07:03:43;18.10;99.90
23744;DHT22;12052;53.478;10.182;2023-08-20T07:06:10;18.20;99.90
23744;DHT22;12052;53.478;10.182;2023-08-20T07:08:37;18.20;99.90
23744;DHT22;12052;53.478;10.182;2023-08-20T07:11:04;18.30;99.90
23744;DHT22;12052;53.478;10.182;2023-08-20T07:13:30;18.30;99.90
23744;DHT22;12052;53.478;10.182;2023-08-20T07:15:56;18.20;99.90
23744;DHT22;12052;53.478;10.182;2023-08-20T07:18:21;18.20;99.90
23744;DHT22;12052;53.478;10.182;2023-08-20T07:20:47;18.30;99.90
23744;DHT22;12052;53.478;10.182;2023-08-20T07:23:13;18.40;99.90
23744;DHT22;12052;53.478;10.182;2023-08-20T07:25:40;18.60;99.90
23744;DHT22;12052;53.478;10.182;2023-08-20T07:28:07;18.80;99.90
23744;DHT22;12052;53.478;10.182;2023-08-20T07:30:34;18.90;99.90
23744;DHT22;12052;53.478;10.182;2023-08-20T07:33:00;19.00;99.90
23744;DHT22;12052;53.478;10.182;2023-08-20T07:35:26;19.10;99.90
23744;DHT22;12052;53.478;10.182;2023-08-20T07:37:52;19.20;99.90
23744;DHT22;12052;53.478;10.182;2023-08-20T07:40:18;19.30;99.90
23744;DHT22;12052;53.478;10.182;2023-08-20T07:42:43;19.30;99.90
23744;DHT22;12052;53.478;10.182;2023-08-20T07:45:09;19.20;99.90
23744;DHT22;12052;53.478;10.182;2023-08-20T07:47:36;19.10;99.90
23744;DHT22;12052;53.478;10.182;2023-08-20T07:50:02;19.00;99.90
23744;DHT22;12052;53.478;10.182;2023-08-20T07:52:28;19.00;99.90
23744;DHT22;12052;53.478;10.182;2023-08-20T07:54:54;19.20;99.90
23744;DHT22;12052;53.478;10.182;2023-08-20T07:57:19;19.30;99.90
23744;DHT22;12052;53.478;10.182;2023-08-20T07:59:45;19.30;99.90
23744;DHT22;12052;53.478;10.182;2023-08-20T08:02:11;19.50;99.90
23744;DHT22;12052;53.478;10.182;2023-08-20T08:04:36;19.70;99.90
23744;DHT22;12052;53.478;10.182;2023-08-20T08:07:02;19.80;99.90
23744;DHT22;12052;53.478;10.182;2023-08-20T08:09:30;20.00;99.90
23744;DHT22;12052;53.478;10.182;2023-08-20T08:11:56;20.10;99.90
23744;DHT22;12052;53.478;10.182;2023-08-20T08:14:22;20.20;99.90
23744;DHT22;12052;53.478;10.182;2023-08-20T08:16:49;20.30;99.90
23744;DHT22;12052;53.478;10.182;2023-08-20T08:19:16;20.30;99.90
23744;DHT22;12052;53.478;10.182;2023-08-20T08:21:42;20.40;99.90
23744;DHT22;12052;53.478;10.182;2023-08-20T08:24:08;20.50;99.90
23744;DHT22;12052;53.478;10.182;2023-08-20T08:26:35;20.60;99.90
23744;DHT22;12052;53.478;10.182;2023-08-20T08:29:02;20.70;99.90
23744;DHT22;12052;53.478;10.182;2023-08-20T08:31:28;20.60;99.90
23744;DHT22;12052;53.478;10.182;2023-08-20T08:33:53;20.80;99.90
23744;DHT22;12052;53.478;10.182;2023-08-20T08:36:19;20.80;99.90
23744;DHT22;12052;53.478;10.182;2023-08-20T08:38:45;20.90;99.90
23744;DHT22;12052;53.478;10.182;2023-08-20T08:41:12;21.10;99.90
23744;DHT22;12052;53.478;10.182;2023-08-20T08:43:38;21.00;99.90
23744;DHT22;12052;53.478;10.182;2023-08-20T08:46:13;21.10;99.90
23744;DHT22;12052;53.478;10.182;2023-08-20T08:48:41;21.30;99.90
23744;DHT22;12052;53.478;10.182;2023-08-20T08:51:07;21.50;99.90
23744;DHT22;12052;53.478;10.182;2023-08-20T08:53:33;21.60;99.90
23744;DHT22;12052;53.478;10.182;2023-08-20T08:56:00;21.70;99.90
23744;DHT22;12052;53.478;10.182;2023-08-20T08:58:26;21.90;99.90
23744;DHT22;12052;53.478;10.182;2023-08-20T09:00:52;22.20;99.90
23744;DHT22;12052;53.478;10.182;2023-08-20T09:03:18;22.30;99.90
23744;DHT22;12052;53.478;10.182;2023-08-20T09:06:00;22.40;99.90
23744;DHT22;12052;53.478;10.182;2023-08-20T09:08:29;22.50;99.90
23744;DHT22;12052;53.478;10.182;2023-08-20T09:10:56;22.40;99.90
23744;DHT22;12052;53.478;10.182;2023-08-20T09:13:36;22.40;99.90
23744;DHT22;12052;53.478;10.182;2023-08-20T09:16:06;22.40;99.90
23744;DHT22;12052;53.478;10.182;2023-08-20T09:18:45;22.40;99.90
23744;DHT22;12052;53.478;10.182;2023-08-20T09:21:13;22.50;99.90
23744;DHT22;12052;53.478;10.182;2023-08-20T09:23:39;22.60;99.90
23744;DHT22;12052;53.478;10.182;2023-08-20T09:26:06;22.80;99.90
23744;DHT22;12052;53.478;10.182;2023-08-20T09:28:46;22.90;99.90
23744;DHT22;12052;53.478;10.182;2023-08-20T09:31:12;23.00;99.90
23744;DHT22;12052;53.478;10.182;2023-08-20T09:33:54;23.10;99.90
23744;DHT22;12052;53.478;10.182;2023-08-20T09:36:34;23.20;99.90
23744;DHT22;12052;53.478;10.182;2023-08-20T09:39:03;23.30;99.90
23744;DHT22;12052;53.478;10.182;2023-08-20T09:41:29;23.30;99.90
23744;DHT22;12052;53.478;10.182;2023-08-20T09:43:57;23.40;99.90
23744;DHT22;12052;53.478;10.182;2023-08-20T09:46:25;23.40;99.90
23744;DHT22;12052;53.478;10.182;2023-08-20T09:49:00;23.50;99.90
23744;DHT22;12052;53.478;10.182;2023-08-20T09:51:28;23.50;99.90
23744;DHT22;12052;53.478;10.182;2023-08-20T09:56:30;23.60;99.90
23744;DHT22;12052;53.478;10.182;2023-08-20T09:58:59;23.70;99.90
23744;DHT22;12052;53.478;10.182;2023-08-20T10:01:26;23.70;99.90
23744;DHT22;12052;53.478;10.182;2023-08-20T10:03:53;23.80;99.90
23744;DHT22;12052;53.478;10.182;2023-08-20T10:06:19;23.90;99.90
23744;DHT22;12052;53.478;10.182;2023-08-20T10:08:46;23.90;99.90
23744;DHT22;12052;53.478;10.182;2023-08-20T10:11:12;24.10;99.90
23744;DHT22;12052;53.478;10.182;2023-08-20T10:13:38;24.10;99.90
23744;DHT22;12052;53.478;10.182;2023-08-20T10:16:04;24.20;99.90
23744;DHT22;12052;53.478;10.182;2023-08-20T10:18:30;24.30;99.90
23744;DHT22;12052;53.478;10.182;2023-08-20T10:20:57;24.30;99.90
23744;DHT22;12052;53.478;10.182;2023-08-20T10:23:24;24.40;99.90
23744;DHT22;12052;53.478;10.182;2023-08-20T10:25:52;24.40;99.90
23744;DHT22;12052;53.478;10.182;2023-08-20T10:28:27;24.50;99.90
23744;DHT22;12052;53.478;10.182;2023-08-20T10:31:25;24.70;99.90
23744;DHT22;12052;53.478;10.182;2023-08-20T10:33:55;24.50;99.90
23744;DHT22;12052;53.478;10.182;2023-08-20T10:36:22;24.40;99.90
23744;DHT22;12052;53.478;10.182;2023-08-20T10:38:52;24.50;99.90
23744;DHT22;12052;53.478;10.182;2023-08-20T10:41:28;24.50;99.90
23744;DHT22;12052;53.478;10.182;2023-08-20T10:43:58;24.80;99.90
23744;DHT22;12052;53.478;10.182;2023-08-20T10:46:25;24.70;99.90
23744;DHT22;12052;53.478;10.182;2023-08-20T10:48:55;24.60;99.90
23744;DHT22;12052;53.478;10.182;2023-08-20T10:51:24;24.60;99.90
23744;DHT22;12052;53.478;10.182;2023-08-20T10:56:44;24.90;99.90
23744;DHT22;12052;53.478;10.182;2023-08-20T10:59:25;24.90;99.90
23744;DHT22;12052;53.478;10.182;2023-08-20T11:01:55;24.90;99.90
23744;DHT22;12052;53.478;10.182;2023-08-20T11:04:27;24.80;99.90
23744;DHT22;12052;53.478;10.182;2023-08-20T11:06:55;24.90;99.90
23744;DHT22;12052;53.478;10.182;2023-08-20T11:09:25;25.00;99.90
23744;DHT22;12052;53.478;10.182;2023-08-20T11:11:52;24.90;99.90
23744;DHT22;12052;53.478;10.182;2023-08-20T11:14:19;24.90;99.90
23744;DHT22;12052;53.478;10.182;2023-08-20T11:16:45;24.70;99.90
23744;DHT22;12052;53.478;10.182;2023-08-20T11:19:12;24.80;99.90
23744;DHT22;12052;53.478;10.182;2023-08-20T11:21:39;25.00;99.90
23744;DHT22;12052;53.478;10.182;2023-08-20T11:24:06;25.20;99.90
23744;DHT22;12052;53.478;10.182;2023-08-20T11:26:33;25.20;99.90
23744;DHT22;12052;53.478;10.182;2023-08-20T11:29:00;25.00;99.90
23744;DHT22;12052;53.478;10.182;2023-08-20T11:31:25;25.00;99.90
23744;DHT22;12052;53.478;10.182;2023-08-20T11:33:51;25.00;99.90
23744;DHT22;12052;53.478;10.182;2023-08-20T11:36:17;24.90;99.90
23744;DHT22;12052;53.478;10.182;2023-08-20T11:38:51;24.80;99.90
23744;DHT22;12052;53.478;10.182;2023-08-20T11:41:21;24.70;99.90
23744;DHT22;12052;53.478;10.182;2023-08-20T11:43:48;24.60;99.90
23744;DHT22;12052;53.478;10.182;2023-08-20T11:46:14;24.70;99.90
23744;DHT22;12052;53.478;10.182;2023-08-20T11:49:00;24.90;99.90
23744;DHT22;12052;53.478;10.182;2023-08-20T11:51:47;25.20;99.90
23744;DHT22;12052;53.478;10.182;2023-08-20T11:54:15;25.20;99.90
23744;DHT22;12052;53.478;10.182;2023-08-20T11:56:49;25.50;99.90
23744;DHT22;12052;53.478;10.182;2023-08-20T11:59:15;25.40;99.90
23744;DHT22;12052;53.478;10.182;2023-08-20T12:01:41;25.40;99.90
23744;DHT22;12052;53.478;10.182;2023-08-20T12:04:09;25.50;99.90
23744;DHT22;12052;53.478;10.182;2023-08-20T12:06:36;25.50;99.90
23744;DHT22;12052;53.478;10.182;2023-08-20T12:09:18;25.60;99.90
23744;DHT22;12052;53.478;10.182;2023-08-20T12:11:50;25.80;99.90
23744;DHT22;12052;53.478;10.182;2023-08-20T12:14:19;26.00;99.90
23744;DHT22;12052;53.478;10.182;2023-08-20T12:16:45;25.90;99.90
23744;DHT22;12052;53.478;10.182;2023-08-20T12:19:11;26.00;99.90
23744;DHT22;12052;53.478;10.182;2023-08-20T12:21:37;26.10;99.90
23744;DHT22;12052;53.478;10.182;2023-08-20T12:24:03;26.10;99.90
23744;DHT22;12052;53.478;10.182;2023-08-20T12:26:29;25.90;99.90
23744;DHT22;12052;53.478;10.182;2023-08-20T12:28:55;25.70;99.90
23744;DHT22;12052;53.478;10.182;2023-08-20T12:31:20;25.50;99.90
23744;DHT22;12052;53.478;10.182;2023-08-20T12:33:46;25.60;99.90
23744;DHT22;12052;53.478;10.182;2023-08-20T12:36:11;25.50;99.90
23744;DHT22;12052;53.478;10.182;2023-08-20T12:38:37;25.40;99.90
23744;DHT22;12052;53.478;10.182;2023-08-20T12:41:03;25.50;99.90
23744;DHT22;12052;53.478;10.182;2023-08-20T12:43:30;25.50;99.90
23744;DHT22;12052;53.478;10.182;2023-08-20T12:45:56;25.50;99.90
23744;DHT22;12052;53.478;10.182;2023-08-20T12:48:21;25.50;99.90
23744;DHT22;12052;53.478;10.182;2023-08-20T12:50:47;25.50;99.90
23744;DHT22;12052;53.478;10.182;2023-08-20T12:53:13;25.60;99.90
23744;DHT22;12052;53.478;10.182;2023-08-20T12:55:39;25.70;99.90
23744;DHT22;12052;53.478;10.182;2023-08-20T12:58:04;25.90;99.90
23744;DHT22;12052;53.478;10.182;2023-08-20T13:00:30;26.00;99.90
23744;DHT22;12052;53.478;10.182;2023-08-20T13:02:56;26.00;99.90
23744;DHT22;12052;53.478;10.182;2023-08-20T13:05:23;26.20;99.90
23744;DHT22;12052;53.478;10.182;2023-08-20T13:07:49;26.20;99.90
23744;DHT22;12052;53.478;10.182;2023-08-20T13:10:15;26.20;99.90
23744;DHT22;12052;53.478;10.182;2023-08-20T13:12:41;26.20;99.90
23744;DHT22;12052;53.478;10.182;2023-08-20T13:15:08;26.20;99.90
23744;DHT22;12052;53.478;10.182;2023-08-20T13:17:36;26.20;99.90
23744;DHT22;12052;53.478;10.182;2023-08-20T13:20:02;26.00;99.90
23744;DHT22;12052;53.478;10.182;2023-08-20T13:22:28;26.20;99.90
23744;DHT22;12052;53.478;10.182;2023-08-20T13:24:53;26.30;99.90
23744;DHT22;12052;53.478;10.182;2023-08-20T13:27:19;26.40;99.90
23744;DHT22;12052;53.478;10.182;2023-08-20T13:29:44;26.40;99.90
23744;DHT22;12052;53.478;10.182;2023-08-20T13:32:10;26.40;99.90
23744;DHT22;12052;53.478;10.182;2023-08-20T13:34:36;26.50;99.90
23744;DHT22;12052;53.478;10.182;2023-08-20T13:37:01;26.60;99.90
23744;DHT22;12052;53.478;10.182;2023-08-20T13:39:27;26.80;99.90
23744;DHT22;12052;53.478;10.182;2023-08-20T13:41:55;26.80;99.90
23744;DHT22;12052;53.478;10.182;2023-08-20T13:44:21;26.70;99.90
23744;DHT22;12052;53.478;10.182;2023-08-20T13:46:46;26.50;99.90
23744;DHT22;12052;53.478;10.182;2023-08-20T13:49:12;26.30;99.90
23744;DHT22;12052;53.478;10.182;2023-08-20T13:51:38;26.20;99.90
23744;DHT22;12052;53.478;10.182;2023-08-20T13:54:04;26.00;99.90
23744;DHT22;12052;53.478;10.182;2023-08-20T13:56:29;26.10;99.90
23744;DHT22;12052;53.478;10.182;2023-08-20T13:58:55;26.00;99.90
23744;DHT22;12052;53.478;10.182;2023-08-20T14:01:21;26.00;99.90
23744;DHT22;12052;53.478;10.182;2023-08-20T14:03:46;26.20;99.90
23744;DHT22;12052;53.478;10.182;2023-08-20T14:06:12;26.30;99.90
23744;DHT22;12052;53.478;10.182;2023-08-20T14:08:37;26.40;99.90
23744;DHT22;12052;53.478;10.182;2023-08-20T14:11:03;26.50;99.90
23744;DHT22;12052;53.478;10.182;2023-08-20T14:13:29;26.40;99.90
23744;DHT22;12052;53.478;10.182;2023-08-20T14:15:54;26.30;99.90
23744;DHT22;12052;53.478;10.182;2023-08-20T14:18:20;26.10;99.90
23744;DHT22;12052;53.478;10.182;2023-08-20T14:20:46;25.90;99.90
23744;DHT22;12052;53.478;10.182;2023-08-20T14:23:11;25.90;99.90
23744;DHT22;12052;53.478;10.182;2023-08-20T14:25:37;25.90;99.90
23744;DHT22;12052;53.478;10.182;2023-08-20T14:28:06;25.90;99.90
23744;DHT22;12052;53.478;10.182;2023-08-20T14:30:32;25.80;99.90
23744;DHT22;12052;53.478;10.182;2023-08-20T14:33:01;25.70;99.90
23744;DHT22;12052;53.478;10.182;2023-08-20T14:35:26;25.90;99.90
23744;DHT22;12052;53.478;10.182;2023-08-20T14:37:53;26.00;99.90
23744;DHT22;12052;53.478;10.182;2023-08-20T14:40:19;26.10;99.90
23744;DHT22;12052;53.478;10.182;2023-08-20T14:42:44;26.20;99.90
23744;DHT22;12052;53.478;10.182;2023-08-20T14:45:10;26.30;99.90
23744;DHT22;12052;53.478;10.182;2023-08-20T14:47:36;26.30;99.90
23744;DHT22;12052;53.478;10.182;2023-08-20T14:50:02;26.40;99.90
23744;DHT22;12052;53.478;10.182;2023-08-20T14:52:30;26.40;99.90
23744;DHT22;12052;53.478;10.182;2023-08-20T14:54:56;26.40;99.90
23744;DHT22;12052;53.478;10.182;2023-08-20T14:57:25;26.40;99.90
23744;DHT22;12052;53.478;10.182;2023-08-20T14:59:51;26.30;99.90
23744;DHT22;12052;53.478;10.182;2023-08-20T15:02:16;26.30;99.90
23744;DHT22;12052;53.478;10.182;2023-08-20T15:04:42;26.40;99.90
23744;DHT22;12052;53.478;10.182;2023-08-20T15:07:08;26.40;99.90
23744;DHT22;12052;53.478;10.182;2023-08-20T15:09:33;26.40;99.90
23744;DHT22;12052;53.478;10.182;2023-08-20T15:11:59;26.30;99.90
23744;DHT22;12052;53.478;10.182;2023-08-20T15:14:25;26.30;99.90
23744;DHT22;12052;53.478;10.182;2023-08-20T15:16:50;26.30;99.90
23744;DHT22;12052;53.478;10.182;2023-08-20T15:19:16;26.30;99.90
23744;DHT22;12052;53.478;10.182;2023-08-20T15:21:41;26.30;99.90
23744;DHT22;12052;53.478;10.182;2023-08-20T15:24:07;26.20;99.90
23744;DHT22;12052;53.478;10.182;2023-08-20T15:26:32;26.30;99.90